Time;durP1;ratioP1;P1;durP2;ratioP2;P2;SDS_P1;SDS_P2;PMS_P1;PMS_P2;Temp;Humidity;BMP_temperature;BMP_pressure;BME280_temperature;BME280_humidity;BME280_pressure;Samples;Min_cycle;Max_cycle;Signal;HPM_P1;HPM_P2
2021/10/12 00:02:04;;;;;;;;;;;;;;;6.42;100.00;100676.28;4951292;29;19929;-64
2021/10/12 00:04:49;;;;;;;;;;;;;;;6.44;100.00;100687.69;4950931;29;19934;-61
2021/10/12 00:07:34;;;;;;;;;;;;;;;6.60;100.00;100669.63;4949379;29;19930;-64
2021/10/12 00:10:19;;;;;;;;;;;;;;;6.65;100.00;100677.34;4951125;29;19929;-64
2021/10/12 00:13:05;;;;;;;;;;;;;;;6.57;100.00;100671.69;4950876;29;19945;-64
2021/10/12 00:15:50;;;;;;;;;;;;;;;6.54;100.00;100675.44;4949866;29;19945;-64
2021/10/12 00:18:35;;;;;;;;;;;;;;;6.55;100.00;100669.13;4942219;29;19948;-65
2021/10/12 00:21:20;;;;;;;;;;;;;;;6.49;100.00;100658.03;4951171;29;20131;-65
2021/10/12 00:24:05;;;;;;;;;;;;;;;6.42;100.00;100661.13;4950739;29;19929;-64
2021/10/12 00:26:50;;;;;;;;;;;;;;;6.47;100.00;100651.94;4951845;29;19977;-66
2021/10/12 00:29:36;;;;;;;;;;;;;;;6.44;100.00;100645.03;4942651;29;20025;-63
2021/10/12 00:32:21;;;;;;;;;;;;;;;6.35;100.00;100640.34;4951557;29;20401;-64
2021/10/12 00:35:06;;;;;;;;;;;;;;;6.28;100.00;100641.75;4950924;29;19929;-66
2021/10/12 00:37:51;;;;;;;;;;;;;;;6.16;100.00;100640.78;4950611;29;19969;-61
2021/10/12 00:40:36;;;;;;;;;;;;;;;6.08;100.00;100640.44;4950202;29;19929;-66
2021/10/12 00:43:25;;;;;;;;;;;;;;;6.04;100.00;100636.31;4946453;29;20013;-65
2021/10/12 00:46:11;;;;;;;;;;;;;;;6.21;100.00;100627.97;4951142;29;19933;-63
2021/10/12 00:48:57;;;;;;;;;;;;;;;6.10;100.00;100622.53;4949169;29;19929;-65
2021/10/12 00:51:42;;;;;;;;;;;;;;;6.06;100.00;100613.06;4948900;28;20016;-65
2021/10/12 00:54:27;;;;;;;;;;;;;;;5.98;100.00;100618.06;4955502;29;20506;-65
2021/10/12 00:57:11;;;;;;;;;;;;;;;6.01;100.00;100610.69;4949018;29;20383;-64
2021/10/12 00:59:56;;;;;;;;;;;;;;;5.83;100.00;100612.78;4942658;29;19945;-62
2021/10/12 01:02:43;;;;;;;;;;;;;;;5.75;100.00;100620.44;4953070;29;19930;-64
2021/10/12 01:05:28;;;;;;;;;;;;;;;6.01;100.00;100613.34;4954228;29;20028;-65
2021/10/12 01:08:13;;;;;;;;;;;;;;;5.86;100.00;100609.91;4950003;29;20421;-64
2021/10/12 01:10:58;;;;;;;;;;;;;;;5.77;100.00;100615.00;4954381;29;19929;-63
2021/10/12 01:13:43;;;;;;;;;;;;;;;5.72;100.00;100598.50;4953009;29;19933;-62
2021/10/12 01:16:28;;;;;;;;;;;;;;;5.84;100.00;100605.66;4943936;29;19982;-64
2021/10/12 01:19:16;;;;;;;;;;;;;;;5.87;100.00;100592.13;4952787;29;20030;-63
2021/10/12 01:22:02;;;;;;;;;;;;;;;5.76;100.00;100584.88;4954168;29;20346;-62
2021/10/12 01:24:47;;;;;;;;;;;;;;;5.79;100.00;100584.63;4943945;29;20338;-65
2021/10/12 01:27:32;;;;;;;;;;;;;;;5.83;100.00;100580.84;4953340;29;20122;-65
2021/10/12 01:30:17;;;;;;;;;;;;;;;5.83;100.00;100586.16;4953820;29;19930;-64
2021/10/12 01:33:02;;;;;;;;;;;;;;;5.82;100.00;100572.94;4952614;29;19944;-64
2021/10/12 01:35:50;;;;;;;;;;;;;;;5.70;100.00;100571.97;4952616;29;20004;-65
2021/10/12 01:38:36;;;;;;;;;;;;;;;5.78;100.00;100555.44;4953747;29;19945;-63
2021/10/12 01:41:21;;;;;;;;;;;;;;;5.72;100.00;100558.56;4950520;29;20407;-63
2021/10/12 01:44:09;;;;;;;;;;;;;;;5.64;100.00;100558.22;4952102;29;19929;-65
2021/10/12 01:46:54;;;;;;;;;;;;;;;5.47;100.00;100556.72;4951775;29;19946;-65
2021/10/12 01:49:39;;;;;;;;;;;;;;;5.57;100.00;100550.66;4953555;29;19976;-62
2021/10/12 01:52:24;;;;;;;;;;;;;;;5.57;100.00;100537.34;4952134;29;19929;-63
2021/10/12 01:55:11;;;;;;;;;;;;;;;5.57;100.00;100548.00;4948862;29;20034;-64
2021/10/12 01:57:55;;;;;;;;;;;;;;;5.61;100.00;100543.31;4951565;29;20286;-66
2021/10/12 02:00:41;;;;;;;;;;;;;;;5.61;100.00;100535.31;4953280;29;20008;-65
2021/10/12 02:03:26;;;;;;;;;;;;;;;5.59;100.00;100539.91;4952549;28;19969;-64
2021/10/12 02:06:10;;;;;;;;;;;;;;;5.56;100.00;100526.78;4946237;29;19929;-61
2021/10/12 02:08:56;;;;;;;;;;;;;;;5.66;100.00;100524.34;4952181;29;20389;-65
2021/10/12 02:11:42;;;;;;;;;;;;;;;5.68;100.00;100519.75;4950387;29;20090;-65
2021/10/12 02:14:27;;;;;;;;;;;;;;;5.68;100.00;100515.28;4946801;29;19977;-64
2021/10/12 02:17:12;;;;;;;;;;;;;;;5.74;100.00;100512.22;4947963;29;19992;-66
2021/10/12 02:19:57;;;;;;;;;;;;;;;5.87;100.00;100517.53;4947117;29;20010;-66
2021/10/12 02:22:42;;;;;;;;;;;;;;;5.99;100.00;100511.38;4946593;29;20449;-62
2021/10/12 02:25:26;;;;;;;;;;;;;;;6.00;100.00;100513.06;4949012;29;20400;-66
2021/10/12 02:28:13;;;;;;;;;;;;;;;6.13;100.00;100516.56;4952415;29;20405;-66
2021/10/12 02:30:57;;;;;;;;;;;;;;;6.20;100.00;100505.50;4950523;29;19929;-66
2021/10/12 02:33:42;;;;;;;;;;;;;;;6.29;100.00;100505.69;4950249;29;21012;-66
2021/10/12 02:36:27;;;;;;;;;;;;;;;6.34;100.00;100500.00;4952208;29;19933;-65
2021/10/12 02:39:12;;;;;;;;;;;;;;;6.30;100.00;100499.38;4946512;29;19933;-63
2021/10/12 02:41:57;;;;;;;;;;;;;;;6.42;100.00;100481.66;4953420;29;19978;-66
2021/10/12 02:44:44;;;;;;;;;;;;;;;6.36;100.00;100474.09;4953683;29;19929;-64
2021/10/12 02:47:28;;;;;;;;;;;;;;;6.22;100.00;100464.44;4948235;29;20069;-65
2021/10/12 02:50:13;;;;;;;;;;;;;;;6.10;100.00;100459.97;4950878;29;19952;-63
2021/10/12 02:52:58;;;;;;;;;;;;;;;5.99;100.00;100462.56;4953051;29;19929;-65
2021/10/12 02:55:43;;;;;;;;;;;;;;;5.82;100.00;100464.59;4952276;29;20353;-66
2021/10/12 02:58:28;;;;;;;;;;;;;;;5.86;100.00;100452.75;4942966;29;19929;-62
2021/10/12 03:01:14;;;;;;;;;;;;;;;5.75;100.00;100459.78;4953134;29;19937;-65
2021/10/12 03:03:59;;;;;;;;;;;;;;;5.75;100.00;100465.13;4947661;29;19934;-65
2021/10/12 03:06:44;;;;;;;;;;;;;;;5.85;100.00;100455.53;4945965;29;19938;-67
2021/10/12 03:09:29;;;;;;;;;;;;;;;6.10;100.00;100452.84;4952428;29;19929;-62
2021/10/12 03:12:14;;;;;;;;;;;;;;;6.15;100.00;100453.34;4944321;29;20001;-65
2021/10/12 03:14:58;;;;;;;;;;;;;;;6.15;100.00;100448.00;4950978;28;20041;-66
2021/10/12 03:17:45;;;;;;;;;;;;;;;6.18;100.00;100441.63;4950469;29;19955;-63
2021/10/12 03:20:29;;;;;;;;;;;;;;;6.11;100.00;100433.22;4952932;29;19944;-62
2021/10/12 03:23:14;;;;;;;;;;;;;;;6.17;100.00;100436.41;4952056;29;19929;-66
2021/10/12 03:25:59;;;;;;;;;;;;;;;6.09;100.00;100428.97;4949795;29;20437;-67
2021/10/12 03:28:44;;;;;;;;;;;;;;;6.00;100.00;100425.16;4952690;29;20310;-63
2021/10/12 03:31:29;;;;;;;;;;;;;;;6.01;100.00;100429.50;4951969;29;19930;-65
2021/10/12 03:34:15;;;;;;;;;;;;;;;5.91;100.00;100425.81;4943189;29;19930;-66
2021/10/12 03:37:00;;;;;;;;;;;;;;;5.93;100.00;100433.72;4950478;29;19929;-63
2021/10/12 03:39:45;;;;;;;;;;;;;;;6.09;100.00;100415.66;4943961;29;20414;-66
2021/10/12 03:42:30;;;;;;;;;;;;;;;6.01;100.00;100418.00;4950250;29;20405;-65
2021/10/12 03:45:15;;;;;;;;;;;;;;;6.10;100.00;100409.34;4950854;29;20401;-61
2021/10/12 03:48:00;;;;;;;;;;;;;;;6.12;100.00;100410.94;4951144;29;20441;-65
2021/10/12 03:50:46;;;;;;;;;;;;;;;6.15;100.00;100407.19;4946317;29;20409;-66
2021/10/12 03:53:31;;;;;;;;;;;;;;;6.32;100.00;100417.47;4939772;29;19933;-66
2021/10/12 03:56:16;;;;;;;;;;;;;;;6.44;100.00;100411.25;4951269;29;19934;-63
2021/10/12 03:59:01;;;;;;;;;;;;;;;6.43;100.00;100398.03;4951629;29;20552;-65
2021/10/12 04:01:45;;;;;;;;;;;;;;;6.48;100.00;100401.19;4952183;29;19930;-66
2021/10/12 04:04:30;;;;;;;;;;;;;;;6.62;100.00;100393.00;4951050;29;19929;-61
2021/10/12 04:07:16;;;;;;;;;;;;;;;6.65;100.00;100387.47;4948826;29;19945;-65
2021/10/12 04:10:01;;;;;;;;;;;;;;;6.64;100.00;100392.91;4952145;29;20076;-65
2021/10/12 04:12:46;;;;;;;;;;;;;;;6.72;100.00;100395.84;4952185;29;19949;-66
2021/10/12 04:15:31;;;;;;;;;;;;;;;6.82;100.00;100382.66;4950715;29;19973;-65
2021/10/12 04:18:16;;;;;;;;;;;;;;;6.89;100.00;100383.91;4946747;29;20025;-67
2021/10/12 04:21:01;;;;;;;;;;;;;;;6.89;100.00;100382.09;4938170;29;19933;-66
2021/10/12 04:23:47;;;;;;;;;;;;;;;6.83;100.00;100373.69;4947621;29;20077;-67
2021/10/12 04:26:32;;;;;;;;;;;;;;;6.88;100.00;100372.38;4950726;28;19950;-65
2021/10/12 04:29:17;;;;;;;;;;;;;;;6.74;100.00;100354.72;4952925;29;20016;-66
2021/10/12 04:32:02;;;;;;;;;;;;;;;6.80;100.00;100355.25;4953538;29;20396;-66
2021/10/12 04:34:47;;;;;;;;;;;;;;;6.79;100.00;100340.22;4944250;29;20298;-66
2021/10/12 04:37:32;;;;;;;;;;;;;;;6.85;100.00;100340.56;4954523;29;20016;-67
2021/10/12 04:40:19;;;;;;;;;;;;;;;6.93;100.00;100338.19;4953644;29;19981;-65
2021/10/12 04:43:06;;;;;;;;;;;;;;;6.90;100.00;100333.09;4951068;29;20394;-66
2021/10/12 04:45:51;;;;;;;;;;;;;;;6.86;100.00;100334.28;4954078;29;19945;-62
2021/10/12 04:48:36;;;;;;;;;;;;;;;6.80;100.00;100333.91;4954470;29;20068;-65
2021/10/12 04:51:21;;;;;;;;;;;;;;;6.77;100.00;100327.00;4955299;29;20386;-66
2021/10/12 04:54:05;;;;;;;;;;;;;;;6.86;100.00;100328.94;4953181;29;19930;-62
2021/10/12 04:56:52;;;;;;;;;;;;;;;6.86;100.00;100331.59;4953761;29;20334;-66
2021/10/12 04:59:37;;;;;;;;;;;;;;;6.96;100.00;100345.94;4954963;29;19930;-64
2021/10/12 05:02:21;;;;;;;;;;;;;;;6.99;100.00;100336.88;4949502;29;19929;-65
2021/10/12 05:05:06;;;;;;;;;;;;;;;6.96;100.00;100316.59;4942286;28;19945;-65
2021/10/12 05:07:52;;;;;;;;;;;;;;;7.03;100.00;100319.63;4954644;28;19929;-65
2021/10/12 05:10:36;;;;;;;;;;;;;;;7.07;100.00;100302.41;4951765;28;20446;-61
2021/10/12 05:13:23;;;;;;;;;;;;;;;7.08;100.00;100304.09;4950383;28;20294;-63
2021/10/12 05:16:12;;;;;;;;;;;;;;;7.11;100.00;100311.91;4948760;29;19942;-67
2021/10/12 05:18:59;;;;;;;;;;;;;;;7.06;100.00;100310.53;4954221;29;20488;-66
2021/10/12 05:21:43;;;;;;;;;;;;;;;7.07;100.00;100299.75;4954917;28;19929;-64
2021/10/12 05:24:28;;;;;;;;;;;;;;;6.94;100.00;100310.53;4947114;29;19930;-66
2021/10/12 05:27:13;;;;;;;;;;;;;;;7.02;100.00;100304.59;4952149;29;19937;-66
2021/10/12 05:29:59;;;;;;;;;;;;;;;6.95;100.00;100290.88;4948514;29;20000;-63
2021/10/12 05:32:44;;;;;;;;;;;;;;;6.90;100.00;100286.88;4953523;29;19934;-63
2021/10/12 05:35:29;;;;;;;;;;;;;;;6.84;100.00;100287.34;4946199;29;20031;-66
2021/10/12 05:38:14;;;;;;;;;;;;;;;6.85;100.00;100279.22;4940536;28;19933;-65
2021/10/12 05:40:59;;;;;;;;;;;;;;;6.85;100.00;100267.69;4949046;29;20389;-63
2021/10/12 05:43:44;;;;;;;;;;;;;;;6.77;100.00;100270.97;4954249;29;19945;-64
2021/10/12 05:46:30;;;;;;;;;;;;;;;6.70;100.00;100264.41;4953285;29;19929;-65
2021/10/12 05:49:15;;;;;;;;;;;;;;;6.61;100.00;100268.63;4954117;29;20214;-65
2021/10/12 05:54:43;;;;;;;;;;;;;;;6.60;100.00;100250.94;4926244;28;20405;-62
2021/10/12 05:57:39;;;;;;;;;;;;;;;6.61;100.00;100262.44;4918293;29;19945;-61
2021/10/12 06:00:24;;;;;;;;;;;;;;;6.66;100.00;100255.81;4911342;29;19934;-63
2021/10/12 06:03:12;;;;;;;;;;;;;;;6.66;100.00;100263.81;4906379;29;19930;-62
2021/10/12 06:05:57;;;;;;;;;;;;;;;6.69;100.00;100270.72;4900494;29;19946;-61
2021/10/12 06:08:43;;;;;;;;;;;;;;;6.80;100.00;100264.56;4870787;29;20106;-63
2021/10/12 06:11:28;;;;;;;;;;;;;;;6.96;100.00;100273.91;4933350;29;19945;-63
2021/10/12 06:14:13;;;;;;;;;;;;;;;6.91;100.00;100267.22;4926928;29;19969;-61
2021/10/12 06:16:58;;;;;;;;;;;;;;;6.94;100.00;100257.16;4924757;29;19982;-60
2021/10/12 06:19:44;;;;;;;;;;;;;;;6.98;100.00;100260.44;4929782;29;19970;-61
2021/10/12 06:22:29;;;;;;;;;;;;;;;7.01;100.00;100265.53;4932042;29;19929;-63
2021/10/12 06:25:14;;;;;;;;;;;;;;;7.02;100.00;100260.09;4925632;29;19930;-62
2021/10/12 06:27:58;;;;;;;;;;;;;;;7.30;100.00;100261.41;4931032;29;19930;-63
2021/10/12 06:30:44;;;;;;;;;;;;;;;7.33;100.00;100265.63;4932441;29;19977;-62
2021/10/12 06:33:29;;;;;;;;;;;;;;;7.40;100.00;100266.84;4929118;29;20069;-66
2021/10/12 06:36:15;;;;;;;;;;;;;;;7.35;100.00;100268.22;4926630;29;20302;-59
2021/10/12 06:39:00;;;;;;;;;;;;;;;7.29;100.00;100262.38;4932232;29;19929;-62
2021/10/12 06:41:45;;;;;;;;;;;;;;;7.32;100.00;100258.59;4929168;29;20073;-64
2021/10/12 06:44:30;;;;;;;;;;;;;;;7.22;100.00;100247.84;4931621;29;20085;-59
2021/10/12 06:47:14;;;;;;;;;;;;;;;7.27;100.00;100253.63;4923192;29;19929;-61
2021/10/12 06:49:59;;;;;;;;;;;;;;;7.28;100.00;100244.66;4928218;29;19929;-66
2021/10/12 06:52:45;;;;;;;;;;;;;;;7.33;100.00;100239.78;4929939;29;19934;-63
2021/10/12 06:55:30;;;;;;;;;;;;;;;7.36;100.00;100244.06;4928339;29;19929;-64
2021/10/12 06:58:16;;;;;;;;;;;;;;;7.53;100.00;100248.00;4925820;29;19978;-61
2021/10/12 07:01:01;;;;;;;;;;;;;;;7.60;100.00;100250.06;4931732;29;19930;-64
2021/10/12 07:03:46;;;;;;;;;;;;;;;7.65;100.00;100239.00;4931824;29;20302;-62
2021/10/12 07:06:31;;;;;;;;;;;;;;;7.68;100.00;100240.56;4929946;29;20075;-62
2021/10/12 07:09:17;;;;;;;;;;;;;;;7.73;100.00;100236.56;4932635;29;19946;-62
2021/10/12 07:12:01;;;;;;;;;;;;;;;7.70;100.00;100234.16;4932475;29;19929;-63
2021/10/12 07:14:46;;;;;;;;;;;;;;;7.67;100.00;100242.38;4931378;29;19963;-64
2021/10/12 07:17:31;;;;;;;;;;;;;;;7.72;100.00;100237.53;4930885;29;19930;-64
2021/10/12 07:20:16;;;;;;;;;;;;;;;7.84;100.00;100233.00;4925440;29;20307;-63
2021/10/12 07:23:02;;;;;;;;;;;;;;;7.86;100.00;100229.22;4929089;29;20061;-62
2021/10/12 07:25:49;;;;;;;;;;;;;;;7.89;100.00;100228.97;4928174;29;20515;-62
2021/10/12 07:28:34;;;;;;;;;;;;;;;8.08;100.00;100238.13;4929011;29;20298;-63
2021/10/12 07:31:19;;;;;;;;;;;;;;;8.12;100.00;100232.38;4931695;29;20025;-61
2021/10/12 07:34:04;;;;;;;;;;;;;;;8.15;100.00;100233.94;4925342;29;19929;-62
2021/10/12 07:36:48;;;;;;;;;;;;;;;8.11;99.83;100236.03;4929575;29;20413;-63
2021/10/12 07:39:33;;;;;;;;;;;;;;;7.99;99.75;100236.22;4928754;29;19929;-62
2021/10/12 07:42:20;;;;;;;;;;;;;;;8.04;99.21;100229.50;4924695;29;20445;-64
2021/10/12 07:45:05;;;;;;;;;;;;;;;8.14;100.00;100240.28;4928789;29;19937;-63
2021/10/12 07:47:50;;;;;;;;;;;;;;;8.42;99.07;100239.69;4923397;29;20290;-64
2021/10/12 07:50:35;;;;;;;;;;;;;;;8.47;97.84;100231.28;4928875;29;19933;-63
2021/10/12 07:53:20;;;;;;;;;;;;;;;8.40;98.67;100236.28;4925532;29;19934;-63
2021/10/12 07:56:08;;;;;;;;;;;;;;;8.49;98.02;100231.97;4924861;29;20302;-61
2021/10/12 07:58:54;;;;;;;;;;;;;;;8.93;97.35;100238.84;4928839;29;20017;-64
2021/10/12 08:01:39;;;;;;;;;;;;;;;9.33;96.85;100229.97;4930873;29;20279;-62
2021/10/12 08:04:24;;;;;;;;;;;;;;;9.24;94.39;100236.19;4930336;29;19929;-65
2021/10/12 08:07:09;;;;;;;;;;;;;;;9.37;95.30;100232.25;4928799;29;19930;-63
2021/10/12 08:09:56;;;;;;;;;;;;;;;9.19;93.49;100223.16;4924033;29;19930;-63
2021/10/12 08:12:41;;;;;;;;;;;;;;;9.04;94.73;100221.84;4927243;29;19938;-63
2021/10/12 08:15:27;;;;;;;;;;;;;;;8.94;94.90;100234.34;4929970;29;19929;-64
2021/10/12 08:18:12;;;;;;;;;;;;;;;8.92;96.54;100228.28;4923356;29;20033;-64
2021/10/12 08:20:57;;;;;;;;;;;;;;;9.06;94.07;100220.72;4923203;29;19934;-65
2021/10/12 08:23:42;;;;;;;;;;;;;;;9.30;94.70;100230.25;4929484;29;19930;-62
2021/10/12 08:26:27;;;;;;;;;;;;;;;9.67;92.37;100231.31;4933110;29;20080;-64
2021/10/12 08:29:12;;;;;;;;;;;;;;;9.79;91.91;100221.31;4930533;29;20393;-63
2021/10/12 08:31:58;;;;;;;;;;;;;;;9.91;89.59;100224.72;4927036;29;19934;-63
2021/10/12 08:34:43;;;;;;;;;;;;;;;9.92;91.80;100216.53;4924685;29;20054;-64
2021/10/12 08:37:28;;;;;;;;;;;;;;;9.80;93.27;100206.09;4930452;29;19929;-64
2021/10/12 08:40:15;;;;;;;;;;;;;;;9.73;90.67;100207.66;4928817;29;20024;-66
2021/10/12 08:43:00;;;;;;;;;;;;;;;9.74;86.66;100204.00;4927996;29;20390;-64
2021/10/12 08:45:46;;;;;;;;;;;;;;;9.77;91.11;100209.91;4926434;29;20054;-64
2021/10/12 08:48:32;;;;;;;;;;;;;;;10.00;89.19;100202.44;4929353;29;19929;-63
2021/10/12 08:51:18;;;;;;;;;;;;;;;9.85;89.07;100202.03;4925690;29;20413;-64
2021/10/12 08:54:02;;;;;;;;;;;;;;;9.90;88.91;100190.88;4928691;29;19952;-63
2021/10/12 08:56:47;;;;;;;;;;;;;;;9.89;88.56;100200.75;4928704;29;19930;-64
2021/10/12 08:59:32;;;;;;;;;;;;;;;9.84;91.26;100203.00;4918548;29;19985;-62
2021/10/12 09:02:18;;;;;;;;;;;;;;;9.78;92.37;100186.63;4926891;29;19930;-64
2021/10/12 09:05:05;;;;;;;;;;;;;;;9.87;86.74;100196.50;4924617;29;20446;-65
2021/10/12 09:07:50;;;;;;;;;;;;;;;10.10;84.09;100186.34;4928684;29;19929;-63
2021/10/12 09:10:36;;;;;;;;;;;;;;;10.16;90.13;100191.97;4930403;29;19930;-62
2021/10/12 09:13:21;;;;;;;;;;;;;;;10.02;87.59;100183.53;4930893;29;19929;-65
2021/10/12 09:16:07;;;;;;;;;;;;;;;9.96;87.68;100172.41;4923355;29;20070;-63
2021/10/12 09:18:53;;;;;;;;;;;;;;;10.07;89.43;100179.44;4928828;29;19929;-64
2021/10/12 09:21:40;;;;;;;;;;;;;;;10.11;82.93;100183.53;4933736;29;19945;-62
2021/10/12 09:24:25;;;;;;;;;;;;;;;10.03;89.18;100178.00;4931984;29;19929;-63
2021/10/12 09:27:12;;;;;;;;;;;;;;;10.48;87.87;100180.09;4930126;29;19929;-65
2021/10/12 09:30:04;;;;;;;;;;;;;;;9.96;89.86;100182.28;4933457;29;19933;-65
2021/10/12 09:32:53;;;;;;;;;;;;;;;10.34;87.21;100178.72;4924785;29;20401;-64
2021/10/12 09:35:38;;;;;;;;;;;;;;;10.70;82.24;100171.72;4927278;29;20307;-65
2021/10/12 09:38:24;;;;;;;;;;;;;;;11.15;81.52;100170.94;4932754;29;20022;-64
2021/10/12 09:41:09;;;;;;;;;;;;;;;11.31;75.94;100176.50;4924820;29;20302;-63
2021/10/12 09:44:05;;;;;;;;;;;;;;;11.05;82.11;100165.63;4926924;29;20303;-64
2021/10/12 09:46:51;;;;;;;;;;;;;;;11.46;73.60;100157.16;4930551;29;19929;-63
2021/10/12 09:49:36;;;;;;;;;;;;;;;11.31;75.17;100157.69;4932849;29;19929;-63
2021/10/12 09:52:21;;;;;;;;;;;;;;;11.21;74.24;100151.53;4925622;29;19942;-63
2021/10/12 09:55:08;;;;;;;;;;;;;;;11.04;74.09;100153.19;4934173;29;20078;-62
2021/10/12 09:57:53;;;;;;;;;;;;;;;10.86;74.93;100156.81;4926893;29;19969;-63
2021/10/12 10:00:38;;;;;;;;;;;;;;;10.67;85.63;100150.53;4919727;29;19979;-61
2021/10/12 10:03:23;;;;;;;;;;;;;;;11.19;74.28;100145.47;4925688;29;19969;-62
2021/10/12 10:06:09;;;;;;;;;;;;;;;11.67;73.98;100141.59;4931394;29;19929;-61
2021/10/12 10:08:55;;;;;;;;;;;;;;;11.61;84.86;100147.59;4932564;29;20001;-61
2021/10/12 10:11:42;;;;;;;;;;;;;;;11.99;75.24;100154.53;4931226;29;20016;-62
2021/10/12 10:14:28;;;;;;;;;;;;;;;11.57;80.97;100135.44;4931479;29;19942;-63
2021/10/12 10:17:13;;;;;;;;;;;;;;;11.29;82.48;100148.94;4930429;29;20205;-64
2021/10/12 10:19:59;;;;;;;;;;;;;;;11.31;82.13;100129.97;4928200;29;20029;-62
2021/10/12 10:22:48;;;;;;;;;;;;;;;12.14;71.78;100130.59;4930660;29;19930;-64
2021/10/12 10:25:34;;;;;;;;;;;;;;;12.25;75.30;100119.59;4925406;29;19933;-65
2021/10/12 10:28:26;;;;;;;;;;;;;;;12.56;71.79;100122.66;4927968;29;20295;-64
2021/10/12 10:31:10;;;;;;;;;;;;;;;12.13;68.39;100131.59;4920113;29;20274;-63
2021/10/12 10:33:55;;;;;;;;;;;;;;;11.71;68.21;100133.06;4925051;29;19934;-61
2021/10/12 10:36:40;;;;;;;;;;;;;;;11.41;67.08;100131.59;4925315;29;19930;-63
2021/10/12 10:39:37;;;;;;;;;;;;;;;11.50;67.61;100121.78;4931235;29;20066;-63
2021/10/12 10:42:52;;;;;;;;;;;;;;;11.55;66.96;100121.31;4931241;29;19930;-62
2021/10/12 10:45:49;;;;;;;;;;;;;;;11.78;66.45;100130.63;4888118;29;19930;-63
2021/10/12 10:48:39;;;;;;;;;;;;;;;11.75;68.51;100128.25;4931191;29;20406;-63
2021/10/12 10:51:24;;;;;;;;;;;;;;;11.59;68.02;100122.69;4921700;29;20009;-61
2021/10/12 10:54:09;;;;;;;;;;;;;;;11.35;68.63;100126.81;4920555;29;20299;-63
2021/10/12 10:57:08;;;;;;;;;;;;;;;11.00;69.47;100116.88;4918037;29;20061;-62
2021/10/12 11:00:07;;;;;;;;;;;;;;;10.87;70.97;100134.31;4919613;29;19933;-63
2021/10/12 11:02:54;;;;;;;;;;;;;;;10.64;73.83;100128.50;4921599;29;19950;-62
2021/10/12 11:05:46;;;;;;;;;;;;;;;10.35;76.93;100125.91;4920439;29;20061;-62
2021/10/12 11:08:33;;;;;;;;;;;;;;;9.98;78.22;100118.63;4918369;29;20342;-64
2021/10/12 11:11:17;;;;;;;;;;;;;;;9.75;77.81;100115.41;4922653;29;19929;-62
2021/10/12 11:14:03;;;;;;;;;;;;;;;9.71;77.66;100122.03;4921732;29;20268;-64
2021/10/12 11:16:48;;;;;;;;;;;;;;;9.60;76.92;100109.63;4923905;29;20295;-64
2021/10/12 11:19:52;;;;;;;;;;;;;;;9.85;76.43;100112.72;4916794;29;20166;-64
2021/10/12 11:22:40;;;;;;;;;;;;;;;10.15;79.85;100104.47;4918796;29;20003;-61
2021/10/12 11:25:30;;;;;;;;;;;;;;;10.57;75.56;100101.41;4920297;29;20186;-65
2021/10/12 11:28:15;;;;;;;;;;;;;;;10.86;71.92;100087.00;4918508;29;19933;-63
2021/10/12 11:31:01;;;;;;;;;;;;;;;11.00;70.07;100081.09;4919397;29;19929;-61
2021/10/12 11:33:47;;;;;;;;;;;;;;;11.26;68.06;100081.25;4916327;29;20410;-63
2021/10/12 11:36:34;;;;;;;;;;;;;;;11.44;67.46;100076.72;4916042;29;19981;-63
2021/10/12 11:39:21;;;;;;;;;;;;;;;11.41;63.59;100083.25;4919115;29;20358;-63
2021/10/12 11:42:07;;;;;;;;;;;;;;;11.38;65.54;100085.41;4920938;29;20100;-61
2021/10/12 11:44:52;;;;;;;;;;;;;;;11.29;64.08;100084.47;4919094;29;19946;-62
2021/10/12 11:47:37;;;;;;;;;;;;;;;11.44;64.66;100079.41;4917680;29;19930;-65
2021/10/12 11:50:22;;;;;;;;;;;;;;;11.54;64.35;100079.31;4921968;29;20065;-62
2021/10/12 11:56:15;;;;;;;;;;;;;;;11.58;65.37;100072.63;4924220;29;19931;-57
2021/10/12 11:59:02;;;;;;;;;;;;;;;11.65;66.00;100085.31;4928104;29;19930;-56
2021/10/12 12:01:47;;;;;;;;;;;;;;;11.67;64.85;100079.78;4931507;29;20073;-58
2021/10/12 12:04:34;;;;;;;;;;;;;;;11.65;63.57;100085.31;4929845;29;19950;-59
2021/10/12 12:07:19;;;;;;;;;;;;;;;11.52;64.14;100075.94;4925988;29;20299;-57
2021/10/12 12:10:04;;;;;;;;;;;;;;;11.40;64.98;100075.34;4932713;29;19934;-57
2021/10/12 12:12:50;;;;;;;;;;;;;;;11.43;64.77;100065.13;4925335;29;19930;-56
2021/10/12 12:15:36;;;;;;;;;;;;;;;11.36;65.40;100063.19;4929142;29;20390;-61
2021/10/12 12:18:22;;;;;;;;;;;;;;;11.40;64.30;100068.13;4928811;29;19950;-64
2021/10/12 12:21:07;;;;;;;;;;;;;;;11.51;64.18;100063.50;4926802;29;19930;-57
2021/10/12 12:23:55;;;;;;;;;;;;;;;11.56;62.52;100061.19;4926006;29;19929;-61
2021/10/12 12:26:40;;;;;;;;;;;;;;;11.58;62.16;100056.50;4924308;29;19929;-59
2021/10/12 12:29:25;;;;;;;;;;;;;;;11.59;61.11;100052.81;4921313;29;20401;-55
2021/10/12 12:32:13;;;;;;;;;;;;;;;11.51;62.94;100060.81;4928320;29;20393;-62
2021/10/12 12:34:59;;;;;;;;;;;;;;;11.41;63.38;100067.13;4926944;29;20024;-60
2021/10/12 12:37:56;;;;;;;;;;;;;;;11.44;61.75;100082.09;4928788;29;20083;-57
2021/10/12 12:40:44;;;;;;;;;;;;;;;11.51;63.49;100071.56;4926988;29;19985;-59
2021/10/12 12:43:30;;;;;;;;;;;;;;;11.76;63.42;100064.56;4923270;29;19957;-61
2021/10/12 12:46:16;;;;;;;;;;;;;;;11.93;61.59;100055.63;4930491;29;20405;-60
2021/10/12 12:49:07;;;;;;;;;;;;;;;11.92;61.95;100065.53;4923825;29;19969;-61
2021/10/12 12:51:52;;;;;;;;;;;;;;;12.16;60.94;100061.34;4928876;29;20021;-60
2021/10/12 12:54:43;;;;;;;;;;;;;;;11.90;58.63;100069.41;4933251;29;20505;-64
2021/10/12 12:57:28;;;;;;;;;;;;;;;11.57;60.11;100068.25;4930267;29;19929;-58
2021/10/12 13:00:14;;;;;;;;;;;;;;;11.39;60.99;100073.66;4928388;29;19930;-65
2021/10/12 13:03:00;;;;;;;;;;;;;;;11.38;62.38;100071.97;4928787;29;19930;-58
2021/10/12 13:05:46;;;;;;;;;;;;;;;11.47;61.60;100073.69;4935504;29;20406;-54
2021/10/12 13:08:32;;;;;;;;;;;;;;;11.49;60.32;100069.03;4935512;29;19990;-57
2021/10/12 13:11:21;;;;;;;;;;;;;;;11.39;60.76;100069.13;4934742;29;19934;-57
2021/10/12 13:14:06;;;;;;;;;;;;;;;11.39;61.53;100074.50;4929901;29;19933;-57
2021/10/12 13:16:51;;;;;;;;;;;;;;;11.47;60.75;100064.78;4926378;29;20461;-64
2021/10/12 13:19:35;;;;;;;;;;;;;;;11.53;57.29;100062.34;4934469;29;20306;-62
2021/10/12 13:22:22;;;;;;;;;;;;;;;11.66;57.57;100059.25;4929904;29;19930;-62
2021/10/12 13:25:09;;;;;;;;;;;;;;;11.72;58.29;100064.03;4927260;29;19938;-59
2021/10/12 13:27:54;;;;;;;;;;;;;;;11.80;57.87;100063.25;4933592;29;19929;-60
2021/10/12 13:30:39;;;;;;;;;;;;;;;11.59;55.51;100071.63;4933442;29;20454;-62
2021/10/12 13:33:24;;;;;;;;;;;;;;;11.36;57.02;100068.56;4925559;29;20144;-67
2021/10/12 13:36:09;;;;;;;;;;;;;;;11.31;59.07;100074.41;4928572;29;19930;-59
2021/10/12 13:38:55;;;;;;;;;;;;;;;11.32;57.88;100078.78;4927602;29;20473;-58
2021/10/12 13:41:40;;;;;;;;;;;;;;;12.00;56.71;100062.94;4933229;29;19930;-59
2021/10/12 13:44:25;;;;;;;;;;;;;;;13.37;51.26;100060.13;4931995;29;19990;-64
2021/10/12 13:47:10;;;;;;;;;;;;;;;14.40;49.24;100076.59;4924197;29;20302;-58
2021/10/12 13:49:54;;;;;;;;;;;;;;;15.54;46.62;100066.09;4922749;29;20062;-58
2021/10/12 13:52:40;;;;;;;;;;;;;;;15.46;44.11;100069.69;4934511;29;19930;-61
2021/10/12 13:55:28;;;;;;;;;;;;;;;16.94;41.60;100065.41;4932873;29;20005;-57
2021/10/12 13:58:13;;;;;;;;;;;;;;;17.92;38.86;100065.81;4932068;29;20415;-60
2021/10/12 14:00:58;;;;;;;;;;;;;;;18.36;39.10;100060.09;4932000;29;20092;-61
2021/10/12 14:03:43;;;;;;;;;;;;;;;17.73;39.31;100065.44;4933740;29;20009;-57
2021/10/12 14:06:28;;;;;;;;;;;;;;;19.12;35.74;100062.81;4932889;29;20138;-62
2021/10/12 14:09:13;;;;;;;;;;;;;;;18.87;36.22;100067.94;4931809;29;20400;-60
2021/10/12 14:11:59;;;;;;;;;;;;;;;20.02;33.93;100062.38;4934339;29;19949;-55
2021/10/12 14:14:45;;;;;;;;;;;;;;;20.15;32.17;100077.88;4931758;29;19933;-60
2021/10/12 14:17:30;;;;;;;;;;;;;;;18.88;33.64;100069.59;4932183;29;20109;-58
2021/10/12 14:20:17;;;;;;;;;;;;;;;19.63;33.48;100068.59;4928152;29;20031;-59